Time;durP1;ratioP1;P1;durP2;ratioP2;P2;SDS_P1;SDS_P2;PMS_P1;PMS_P2;Temp;Humidity;BMP_temperature;BMP_pressure;BME280_temperature;BME280_humidity;BME280_pressure;Samples;Min_cycle;Max_cycle;Signal;HPM_P1;HPM_P2
2021/11/25 00:01:33;;;;;;;57.45;31.75;;;103.30;1766.40;;;;;;5093822;28;20397;-56
2021/11/25 00:03:59;;;;;;;68.45;34.50;;;128.00;1868.80;;;;;;5093738;28;20393;-56
2021/11/25 00:06:25;;;;;;;65.90;35.17;;;128.10;1971.20;;;;;;5092438;28;20032;-56
2021/11/25 00:08:50;;;;;;;66.20;35.17;;;128.20;2073.60;;;;;;5093966;28;20032;-56
2021/11/25 00:11:16;;;;;;;57.65;32.33;;;128.40;1920.00;;;;;;5092754;28;20038;-56
2021/11/25 00:13:42;;;;;;;62.15;33.67;;;128.50;1868.80;;;;;;5093808;28;20032;-56
2021/11/25 00:16:08;;;;;;;65.05;34.70;;;128.60;1792.00;;;;;;5093594;28;20030;-56
2021/11/25 00:18:33;;;;;;;61.50;33.90;;;128.60;1843.20;;;;;;5093490;28;20031;-56
2021/11/25 00:20:59;;;;;;;58.70;33.35;;;128.70;1843.20;;;;;;5093797;28;20179;-56
2021/11/25 00:23:25;;;;;;;57.80;31.73;;;128.80;1817.60;;;;;;5093632;28;20040;-56
2021/11/25 00:25:51;;;;;;;65.55;33.92;;;128.90;1766.40;;;;;;5093117;28;20470;-56
2021/11/25 00:28:16;;;;;;;67.85;35.17;;;128.80;1843.20;;;;;;5093093;28;20085;-56
2021/11/25 00:30:42;;;;;;;58.55;34.33;;;128.70;1843.20;;;;;;5093335;28;20077;-56
2021/11/25 00:33:08;;;;;;;60.25;33.20;;;128.80;1792.00;;;;;;5091286;28;20032;-56
2021/11/25 00:35:34;;;;;;;55.00;31.88;;;128.80;1817.60;;;;;;5093270;28;20047;-56
2021/11/25 00:37:59;;;;;;;51.85;29.40;;;128.90;1843.20;;;;;;5093320;28;20019;-56
2021/11/25 00:40:25;;;;;;;46.35;27.40;;;128.80;1817.60;;;;;;5092702;28;20032;-56
2021/11/25 00:42:51;;;;;;;43.78;24.58;;;153.60;1766.40;;;;;;5093023;28;20165;-56
2021/11/25 00:45:17;;;;;;;45.80;26.52;;;153.60;1843.20;;;;;;5093228;28;20028;-56
2021/11/25 00:47:44;;;;;;;42.85;24.60;;;128.90;1868.80;;;;;;5093040;28;20069;-56
2021/11/25 00:50:12;;;;;;;37.25;23.42;;;153.60;1817.60;;;;;;5093340;28;20023;-56
2021/11/25 00:52:38;;;;;;;37.75;22.10;;;153.70;1792.00;;;;;;5093114;28;20034;-56
2021/11/25 00:55:05;;;;;;;39.67;23.20;;;153.60;1868.80;;;;;;5093014;28;20351;-56
2021/11/25 00:57:30;;;;;;;37.85;23.30;;;153.70;1868.80;;;;;;5092873;28;20074;-56
2021/11/25 00:59:56;;;;;;;36.88;21.98;;;153.70;1792.00;;;;;;5093141;28;20024;-56
2021/11/25 01:02:22;;;;;;;35.33;22.08;;;153.70;1843.20;;;;;;5091964;28;20378;-56
2021/11/25 01:04:48;;;;;;;35.88;21.35;;;153.70;1894.40;;;;;;5092664;28;20024;-56
2021/11/25 01:07:13;;;;;;;34.20;22.05;;;153.90;1817.60;;;;;;5093178;28;20582;-56
2021/11/25 01:09:39;;;;;;;36.97;21.48;;;153.90;1843.20;;;;;;5092514;28;20418;-56
2021/11/25 01:12:07;;;;;;;37.00;21.40;;;153.80;1894.40;;;;;;5091557;28;20028;-56
2021/11/25 01:14:35;;;;;;;34.03;19.60;;;153.90;1868.80;;;;;;5093138;28;20028;-56
2021/11/25 01:17:01;;;;;;;32.72;19.95;;;153.90;1817.60;;;;;;5092098;28;20024;-56
2021/11/25 01:19:27;;;;;;;36.47;21.75;;;153.90;1868.80;;;;;;5092771;28;20054;-56
2021/11/25 01:21:53;;;;;;;32.30;20.63;;;154.00;1894.40;;;;;;5092938;28;20036;-56
2021/11/25 01:24:19;;;;;;;32.95;20.88;;;154.10;1817.60;;;;;;5093019;28;20059;-56
2021/11/25 01:26:45;;;;;;;34.35;20.42;;;154.00;1868.80;;;;;;5096760;28;20028;-56
2021/11/25 01:29:11;;;;;;;31.00;18.77;;;154.00;1920.00;;;;;;5096892;28;20035;-56
2021/11/25 01:31:38;;;;;;;29.38;19.30;;;154.10;1868.80;;;;;;5096397;28;20043;-56
2021/11/25 01:34:04;;;;;;;38.40;21.58;;;154.20;1843.20;;;;;;5096725;28;20039;-56
2021/11/25 01:36:30;;;;;;;33.53;20.13;;;154.10;1894.40;;;;;;5096301;28;20032;-56
2021/11/25 01:38:56;;;;;;;30.63;19.92;;;154.10;1894.40;;;;;;5096201;28;20028;-56
2021/11/25 01:41:21;;;;;;;30.40;18.20;;;154.20;1868.80;;;;;;5097514;28;20024;-56
2021/11/25 01:43:48;;;;;;;31.95;18.02;;;154.10;1843.20;;;;;;5097241;28;20481;-56
2021/11/25 01:46:17;;;;;;;29.73;18.35;;;154.10;1920.00;;;;;;5097699;28;20028;-56
2021/11/25 01:48:44;;;;;;;31.90;19.17;;;154.20;1894.40;;;;;;5098087;28;20401;-56
2021/11/25 01:51:10;;;;;;;31.63;18.10;;;154.20;1868.80;;;;;;5097276;28;20044;-56
2021/11/25 01:53:37;;;;;;;27.75;17.73;;;154.20;1894.40;;;;;;5097495;28;20476;-56
2021/11/25 01:56:07;;;;;;;30.35;18.67;;;154.20;1920.00;;;;;;5097331;28;20115;-56
2021/11/25 01:58:33;;;;;;;30.85;17.38;;;154.40;1868.80;;;;;;5097292;28;20396;-56
2021/11/25 02:01:00;;;;;;;27.70;17.15;;;154.30;1868.80;;;;;;5096944;28;20032;-56
2021/11/25 02:03:27;;;;;;;30.08;18.77;;;154.40;1894.40;;;;;;5096920;28;20139;-56
2021/11/25 02:05:54;;;;;;;29.67;18.33;;;154.40;1894.40;;;;;;5097156;28;20037;-56
2021/11/25 02:08:20;;;;;;;31.05;18.33;;;154.50;1868.80;;;;;;5096950;28;20028;-56
2021/11/25 02:10:50;;;;;;;37.55;20.80;;;154.30;1894.40;;;;;;5096641;28;20036;-56
2021/11/25 02:13:17;;;;;;;32.97;19.73;;;154.40;1920.00;;;;;;5096585;28;20523;-56
2021/11/25 02:15:43;;;;;;;32.72;19.23;;;154.40;1920.00;;;;;;5096766;28;20028;-56
2021/11/25 02:18:12;;;;;;;28.92;17.65;;;154.40;1894.40;;;;;;5096965;28;20024;-56
2021/11/25 02:20:40;;;;;;;29.58;18.70;;;154.40;1894.40;;;;;;5096761;28;20075;-56
2021/11/25 02:23:08;;;;;;;30.80;18.88;;;154.50;1920.00;;;;;;5096741;28;20040;-56
2021/11/25 02:25:34;;;;;;;33.63;18.58;;;154.50;1920.00;;;;;;5095423;28;20127;-56
2021/11/25 02:28:00;;;;;;;29.85;18.55;;;154.50;1894.40;;;;;;5096439;28;20056;-56
2021/11/25 02:30:26;;;;;;;29.52;17.63;;;179.20;1894.40;;;;;;5095983;28;20030;-56
2021/11/25 02:32:52;;;;;;;33.00;18.60;;;179.20;1920.00;;;;;;5096506;28;20111;-56
2021/11/25 02:35:25;;;;;;;31.33;18.65;;;179.20;1868.80;;;;;;5096380;28;20036;-56
2021/11/25 02:37:53;;;;;;;35.08;18.77;;;179.20;1868.80;;;;;;5096336;28;20103;-56
2021/11/25 02:40:32;;;;;;;33.75;19.98;;;179.20;1894.40;;;;;;5096288;28;20024;-56
2021/11/25 02:43:01;;;;;;;28.98;19.45;;;179.20;1894.40;;;;;;5096140;28;20054;-56
2021/11/25 02:45:28;;;;;;;29.92;19.35;;;154.50;1868.80;;;;;;5096336;28;20458;-56
2021/11/25 02:47:54;;;;;;;29.40;18.35;;;154.40;1868.80;;;;;;5095298;28;20429;-56
2021/11/25 02:50:21;;;;;;;32.65;19.45;;;154.40;1894.40;;;;;;5096046;28;20077;-56
2021/11/25 02:52:47;;;;;;;28.98;18.48;;;154.40;1920.00;;;;;;5096248;28;20040;-56
2021/11/25 02:55:14;;;;;;;34.00;19.73;;;154.40;1894.40;;;;;;5096242;28;20031;-56
2021/11/25 02:57:41;;;;;;;32.28;19.85;;;154.40;1894.40;;;;;;5095837;28;20036;-56
2021/11/25 03:00:31;;;;;;;35.58;21.50;;;154.40;1868.80;;;;;;5096056;28;20032;-56
2021/11/25 03:03:01;;;;;;;43.42;22.88;;;154.50;1920.00;;;;;;5095464;28;20044;-56
2021/11/25 03:05:28;;;;;;;39.67;21.98;;;154.50;1868.80;;;;;;5096050;28;20037;-56
2021/11/25 03:07:54;;;;;;;38.38;22.35;;;154.40;1894.40;;;;;;5096134;28;20465;-56
2021/11/25 03:10:20;;;;;;;36.92;21.77;;;154.40;1868.80;;;;;;5095839;28;20024;-56
2021/11/25 03:12:46;;;;;;;42.55;23.85;;;154.40;1843.20;;;;;;5095507;28;20035;-56
2021/11/25 03:15:12;;;;;;;38.03;23.58;;;154.30;1843.20;;;;;;5095397;28;20028;-56
2021/11/25 03:17:38;;;;;;;41.22;24.23;;;154.40;1843.20;;;;;;5095214;28;20028;-56
2021/11/25 03:20:05;;;;;;;44.75;24.23;;;154.30;1868.80;;;;;;5095477;28;20028;-56
2021/11/25 03:22:31;;;;;;;46.17;27.20;;;154.30;1868.80;;;;;;5095622;28;20090;-56
2021/11/25 03:24:57;;;;;;;42.47;26.50;;;154.30;1920.00;;;;;;5095461;28;20031;-56
2021/11/25 03:27:23;;;;;;;38.90;24.67;;;154.40;1920.00;;;;;;5095319;28;20032;-56
2021/11/25 03:29:48;;;;;;;61.03;26.42;;;154.40;1996.80;;;;;;5095423;28;20035;-56
2021/11/25 03:32:14;;;;;;;35.78;22.30;;;154.40;2124.80;;;;;;5095474;28;20106;-56
2021/11/25 03:34:40;;;;;;;33.60;21.77;;;154.50;1996.80;;;;;;5095256;28;20373;-56
2021/11/25 03:37:06;;;;;;;32.80;21.42;;;179.20;1920.00;;;;;;5095760;28;20398;-56
2021/11/25 03:39:32;;;;;;;31.08;20.55;;;179.30;1843.20;;;;;;5095044;28;20021;-56
2021/11/25 03:41:57;;;;;;;29.92;20.13;;;179.30;1868.80;;;;;;5094995;28;20115;-56
2021/11/25 03:44:23;;;;;;;29.50;19.35;;;179.30;1894.40;;;;;;5095095;28;20484;-56
2021/11/25 03:46:49;;;;;;;28.80;19.15;;;179.30;1868.80;;;;;;5094067;28;20024;-56
2021/11/25 03:49:15;;;;;;;30.45;18.83;;;179.40;1868.80;;;;;;5094874;28;20342;-56
2021/11/25 03:51:40;;;;;;;30.67;20.27;;;179.30;1894.40;;;;;;5093299;28;20042;-56
2021/11/25 03:54:07;;;;;;;28.10;17.70;;;179.40;1868.80;;;;;;5094895;28;20095;-56
2021/11/25 03:56:33;;;;;;;31.33;20.30;;;179.40;1843.20;;;;;;5094814;28;20131;-56
2021/11/25 03:58:58;;;;;;;28.73;18.45;;;179.40;1868.80;;;;;;5094843;28;20031;-56
2021/11/25 04:01:24;;;;;;;32.85;19.73;;;179.50;1868.80;;;;;;5094742;28;20369;-56
2021/11/25 04:03:50;;;;;;;29.48;18.50;;;179.40;1817.60;;;;;;5094695;28;20063;-56
2021/11/25 04:06:16;;;;;;;31.83;19.02;;;179.40;1868.80;;;;;;5094604;28;20127;-56
2021/11/25 04:08:42;;;;;;;29.90;18.20;;;179.30;1868.80;;;;;;5094453;28;20035;-56
2021/11/25 04:11:08;;;;;;;31.55;18.23;;;179.30;1817.60;;;;;;5094534;28;20031;-56
2021/11/25 04:13:34;;;;;;;29.13;18.00;;;179.30;1894.40;;;;;;5094476;28;20488;-56
2021/11/25 04:16:00;;;;;;;30.25;19.05;;;179.30;1894.40;;;;;;5094597;28;20031;-56
2021/11/25 04:18:26;;;;;;;39.45;21.75;;;179.30;1868.80;;;;;;5094603;28;20027;-56
2021/11/25 04:20:51;;;;;;;35.72;20.77;;;179.30;1945.60;;;;;;5094276;28;20036;-56
2021/11/25 04:23:17;;;;;;;62.42;24.35;;;179.40;1945.60;;;;;;5094251;28;20059;-56
2021/11/25 04:25:43;;;;;;;54.88;21.67;;;179.40;1971.20;;;;;;5094006;28;20087;-56
2021/11/25 04:28:09;;;;;;;44.00;22.30;;;179.50;1971.20;;;;;;5092880;28;20036;-56
2021/11/25 04:35:50;;;;;;;39.67;21.65;;;179.70;1920.00;;;;;;5094616;28;20081;-56
2021/11/25 04:38:18;;;;;;;35.95;20.08;;;179.80;1945.60;;;;;;5094155;28;20381;-56
2021/11/25 04:40:53;;;;;;;31.60;19.35;;;179.80;1920.00;;;;;;5094183;28;20028;-56
2021/11/25 04:43:20;;;;;;;31.23;19.33;;;179.80;1945.60;;;;;;5093799;28;20040;-56
2021/11/25 04:45:47;;;;;;;28.17;17.85;;;179.90;1920.00;;;;;;5093836;28;20482;-56
2021/11/25 04:48:15;;;;;;;28.92;17.40;;;179.90;1920.00;;;;;;5094051;28;20439;-56
2021/11/25 04:50:41;;;;;;;27.50;17.88;;;179.90;1894.40;;;;;;5093894;28;20500;-56
2021/11/25 04:53:09;;;;;;;29.40;17.77;;;180.00;1920.00;;;;;;5093931;28;20044;-56
2021/11/25 04:55:35;;;;;;;29.73;18.30;;;180.00;1920.00;;;;;;5093953;28;20529;-56
2021/11/25 04:58:01;;;;;;;25.98;18.17;;;180.10;1920.00;;;;;;5093609;28;20067;-56
2021/11/25 05:00:27;;;;;;;29.77;18.65;;;180.10;1894.40;;;;;;5093431;28;20056;-56
2021/11/25 05:02:53;;;;;;;26.08;18.05;;;180.10;1894.40;;;;;;5093586;28;20452;-56
2021/11/25 05:05:19;;;;;;;28.17;18.52;;;180.10;1894.40;;;;;;5093968;28;20449;-56
2021/11/25 05:07:44;;;;;;;28.45;18.33;;;204.80;1894.40;;;;;;5093919;28;20028;-56
2021/11/25 05:10:11;;;;;;;28.45;17.73;;;204.80;1894.40;;;;;;5093773;28;20454;-56
2021/11/25 05:12:37;;;;;;;29.00;17.85;;;204.80;1894.40;;;;;;5093502;28;20131;-56
2021/11/25 05:15:08;;;;;;;29.55;18.77;;;204.80;1894.40;;;;;;5093821;28;20035;-56
2021/11/25 05:17:34;;;;;;;31.27;19.40;;;204.80;1894.40;;;;;;5093761;28;20044;-56
2021/11/25 05:20:00;;;;;;;31.13;18.77;;;204.80;1894.40;;;;;;5093728;28;20474;-56
2021/11/25 05:22:25;;;;;;;30.75;19.30;;;204.80;1894.40;;;;;;5093807;28;20020;-56
2021/11/25 05:24:51;;;;;;;29.50;19.63;;;204.80;1868.80;;;;;;5093852;28;20474;-56
2021/11/25 05:27:17;;;;;;;31.38;18.75;;;204.90;1868.80;;;;;;5093485;28;20465;-56
2021/11/25 05:29:42;;;;;;;29.00;18.25;;;204.90;1894.40;;;;;;5093753;28;20085;-56
2021/11/25 05:32:09;;;;;;;28.33;18.67;;;204.80;1894.40;;;;;;5093522;28;20042;-56
2021/11/25 05:34:35;;;;;;;26.85;18.33;;;204.80;1894.40;;;;;;5093702;28;20488;-56
2021/11/25 05:37:00;;;;;;;29.02;18.65;;;204.90;1894.40;;;;;;5093427;28;20047;-56
2021/11/25 05:39:26;;;;;;;28.58;17.70;;;204.90;1894.40;;;;;;5093650;28;20059;-56
2021/11/25 05:41:52;;;;;;;27.23;18.13;;;204.90;1868.80;;;;;;5093286;28;20040;-56
2021/11/25 05:44:17;;;;;;;32.03;18.98;;;204.90;1868.80;;;;;;5093588;28;20028;-56
2021/11/25 05:46:43;;;;;;;28.52;18.08;;;204.90;1894.40;;;;;;5093246;28;20359;-56
2021/11/25 05:49:09;;;;;;;28.77;19.10;;;204.90;1868.80;;;;;;5092935;28;20024;-56
2021/11/25 05:51:35;;;;;;;30.83;20.15;;;204.90;1868.80;;;;;;5093232;28;20032;-56
2021/11/25 05:54:01;;;;;;;34.78;20.08;;;204.90;1868.80;;;;;;5091724;28;20036;-56
2021/11/25 05:56:27;;;;;;;35.17;21.30;;;204.90;1868.80;;;;;;5093348;28;20037;-56
2021/11/25 05:58:54;;;;;;;28.67;19.90;;;204.90;1868.80;;;;;;5093025;28;20089;-56
2021/11/25 06:01:23;;;;;;;30.58;18.75;;;204.90;1868.80;;;;;;5093281;28;20020;-56
2021/11/25 06:03:49;;;;;;;36.47;20.27;;;204.90;1868.80;;;;;;5093218;28;20522;-56
2021/11/25 06:06:15;;;;;;;34.30;20.30;;;204.80;1894.40;;;;;;5093136;28;20024;-56
2021/11/25 06:08:41;;;;;;;34.72;21.17;;;204.80;1868.80;;;;;;5091425;28;20482;-56
2021/11/25 06:11:07;;;;;;;31.30;20.27;;;204.80;1868.80;;;;;;5096521;28;20016;-56
2021/11/25 06:13:32;;;;;;;32.53;20.30;;;204.80;1868.80;;;;;;5096682;28;20455;-56
2021/11/25 06:15:58;;;;;;;32.88;20.17;;;204.80;1868.80;;;;;;5096627;28;20032;-56
2021/11/25 06:18:24;;;;;;;28.08;20.00;;;204.80;1868.80;;;;;;5096176;28;20032;-56
2021/11/25 06:20:49;;;;;;;33.15;20.60;;;204.80;1868.80;;;;;;5096841;28;20032;-56
2021/11/25 06:23:16;;;;;;;28.55;19.00;;;204.80;1868.80;;;;;;5096675;28;20044;-56
2021/11/25 06:25:43;;;;;;;32.25;20.00;;;204.80;1868.80;;;;;;5096711;28;20032;-56
2021/11/25 06:28:10;;;;;;;34.60;20.35;;;204.80;1868.80;;;;;;5096491;28;20017;-56
2021/11/25 06:30:36;;;;;;;31.40;19.60;;;204.80;1843.20;;;;;;5096266;28;20024;-56
2021/11/25 06:33:02;;;;;;;36.42;20.90;;;204.80;1843.20;;;;;;5096788;28;20039;-56
2021/11/25 06:35:27;;;;;;;37.45;23.90;;;204.80;1868.80;;;;;;5096338;28;20027;-56
2021/11/25 06:37:55;;;;;;;45.35;28.63;;;204.80;1868.80;;;;;;5096482;28;20020;-56
2021/11/25 06:40:27;;;;;;;40.95;27.73;;;204.80;1843.20;;;;;;5096546;28;20020;-56
2021/11/25 06:42:54;;;;;;;42.63;27.95;;;204.80;1868.80;;;;;;5095988;28;20131;-56
2021/11/25 06:45:20;;;;;;;41.00;28.98;;;180.10;1868.80;;;;;;5096168;28;20028;-56
2021/11/25 06:47:47;;;;;;;39.25;26.45;;;204.80;1868.80;;;;;;5096086;28;20026;-56
2021/11/25 06:50:14;;;;;;;38.60;24.88;;;204.80;1868.80;;;;;;5094877;28;20113;-56
2021/11/25 06:52:40;;;;;;;38.00;24.92;;;204.80;1868.80;;;;;;5096072;28;20070;-56
2021/11/25 06:55:08;;;;;;;38.83;25.50;;;204.80;1868.80;;;;;;5095749;28;20051;-56
2021/11/25 06:57:34;;;;;;;40.38;24.17;;;204.80;1868.80;;;;;;5095893;28;20036;-56
2021/11/25 07:00:03;;;;;;;40.22;24.63;;;204.80;1843.20;;;;;;5095986;28;20032;-56
2021/11/25 07:02:28;;;;;;;38.90;24.02;;;204.80;1843.20;;;;;;5095731;28;20060;-57
2021/11/25 07:04:54;;;;;;;36.50;21.70;;;204.80;1843.20;;;;;;5095721;28;20523;-60
2021/11/25 07:07:20;;;;;;;37.53;23.00;;;204.80;1843.20;;;;;;5096111;28;20024;-58
2021/11/25 07:09:45;;;;;;;33.17;21.05;;;204.80;1843.20;;;;;;5095892;28;20035;-58
2021/11/25 07:12:12;;;;;;;35.45;21.17;;;204.80;1868.80;;;;;;5094301;28;20397;-59
2021/11/25 07:14:38;;;;;;;37.17;22.23;;;204.80;1843.20;;;;;;5095604;28;20035;-59
2021/11/25 07:17:04;;;;;;;38.15;23.33;;;204.80;1868.80;;;;;;5095528;28;20028;-57
2021/11/25 07:19:29;;;;;;;42.03;25.10;;;204.80;1868.80;;;;;;5095499;28;20028;-60
2021/11/25 07:21:55;;;;;;;47.05;28.30;;;204.80;1868.80;;;;;;5095643;28;20035;-57
2021/11/25 07:24:21;;;;;;;43.13;25.92;;;204.80;1868.80;;;;;;5095418;28;20097;-60
2021/11/25 07:26:46;;;;;;;43.65;24.95;;;204.80;1868.80;;;;;;5095824;28;20109;-58
2021/11/25 07:29:12;;;;;;;38.28;22.23;;;204.90;1894.40;;;;;;5095414;28;20032;-58
2021/11/25 07:31:38;;;;;;;41.38;22.67;;;205.00;1894.40;;;;;;5095385;28;20016;-58
2021/11/25 07:34:04;;;;;;;39.60;22.90;;;205.00;1894.40;;;;;;5095252;28;20024;-59
2021/11/25 07:36:29;;;;;;;39.20;22.45;;;205.00;1868.80;;;;;;5095485;28;20020;-57
2021/11/25 07:38:55;;;;;;;37.97;21.40;;;205.10;1868.80;;;;;;5093461;28;20039;-55
2021/11/25 07:41:21;;;;;;;42.45;21.48;;;205.10;1894.40;;;;;;5095268;28;20028;-56
2021/11/25 07:43:47;;;;;;;36.08;21.08;;;205.10;1868.80;;;;;;5094781;28;20039;-56
2021/11/25 07:46:12;;;;;;;32.65;20.50;;;205.20;1894.40;;;;;;5094906;28;20058;-56
2021/11/25 07:48:38;;;;;;;33.72;20.88;;;205.20;1868.80;;;;;;5094845;28;20024;-56
2021/11/25 07:51:07;;;;;;;31.80;20.58;;;205.30;1868.80;;;;;;5095064;28;20032;-56
2021/11/25 07:53:34;;;;;;;32.28;20.80;;;205.30;1868.80;;;;;;5093794;28;20123;-56
2021/11/25 07:56:00;;;;;;;30.80;20.48;;;205.30;1894.40;;;;;;5093613;28;20063;-56
2021/11/25 07:58:28;;;;;;;30.90;19.80;;;205.40;1894.40;;;;;;5094676;28;20049;-56
2021/11/25 08:00:54;;;;;;;37.05;22.08;;;205.50;1894.40;;;;;;5094604;28;20028;-56
2021/11/25 08:03:20;;;;;;;36.70;22.33;;;205.50;1894.40;;;;;;5094542;28;20123;-56
2021/11/25 08:05:46;;;;;;;32.80;21.73;;;205.50;1894.40;;;;;;5094863;28;20048;-56
2021/11/25 08:08:11;;;;;;;36.10;22.88;;;205.60;1894.40;;;;;;5094798;28;20036;-56
2021/11/25 08:10:37;;;;;;;35.55;21.88;;;205.60;1920.00;;;;;;5093470;28;20036;-56
2021/11/25 08:13:04;;;;;;;39.80;24.23;;;205.70;1894.40;;;;;;5094341;28;20089;-56
2021/11/25 08:15:31;;;;;;;42.35;25.67;;;205.70;1920.00;;;;;;5094648;28;20469;-56
2021/11/25 08:17:57;;;;;;;37.78;22.50;;;230.40;1920.00;;;;;;5094359;28;20113;-56
2021/11/25 08:20:24;;;;;;;34.70;21.33;;;230.40;1920.00;;;;;;5094027;28;20059;-56
2021/11/25 08:22:49;;;;;;;31.30;20.85;;;230.50;1920.00;;;;;;5094498;28;20039;-56
2021/11/25 08:25:16;;;;;;;35.13;20.88;;;230.50;1920.00;;;;;;5093985;28;20032;-56
2021/11/25 08:27:41;;;;;;;36.45;21.40;;;230.60;1920.00;;;;;;5094471;28;20024;-56
2021/11/25 08:30:12;;;;;;;38.42;22.08;;;230.70;1920.00;;;;;;5094226;28;20068;-56
2021/11/25 08:32:38;;;;;;;34.80;21.92;;;230.80;1920.00;;;;;;5093918;28;20028;-56
2021/11/25 08:35:05;;;;;;;34.92;20.60;;;230.80;1920.00;;;;;;5094129;28;20073;-56
2021/11/25 08:37:32;;;;;;;41.90;23.98;;;230.90;1894.40;;;;;;5094314;28;20024;-56
2021/11/25 08:39:58;;;;;;;37.97;22.58;;;231.00;1894.40;;;;;;5094261;28;20027;-56
2021/11/25 08:42:24;;;;;;;35.60;21.33;;;231.00;1894.40;;;;;;5094198;28;20024;-56
2021/11/25 08:44:50;;;;;;;41.95;26.05;;;231.00;1894.40;;;;;;5094591;28;20035;-56
2021/11/25 08:47:16;;;;;;;42.63;27.85;;;231.10;1894.40;;;;;;5094204;28;20021;-56
2021/11/25 08:49:42;;;;;;;40.00;25.08;;;231.20;1894.40;;;;;;5092589;28;20036;-56
2021/11/25 08:52:08;;;;;;;38.58;23.00;;;231.20;1868.80;;;;;;5094237;28;20103;-56
2021/11/25 08:54:34;;;;;;;36.85;23.95;;;231.20;1868.80;;;;;;5094172;28;20089;-55
2021/11/25 08:56:59;;;;;;;32.90;20.95;;;231.30;1868.80;;;;;;5093742;28;20376;-56
2021/11/25 08:59:25;;;;;;;32.13;20.92;;;231.30;1894.40;;;;;;5093835;28;20028;-56
2021/11/25 09:11:52;;;;;;;26.58;17.98;;;256.20;1843.20;;;;;;5094324;28;20031;-56
2021/11/25 09:14:18;;;;;;;30.80;18.15;;;256.30;1843.20;;;;;;5093784;28;20103;-56
2021/11/25 09:16:44;;;;;;;28.65;18.63;;;256.40;1843.20;;;;;;5093530;28;20044;-56
2021/11/25 09:19:41;;;;;;;27.52;19.35;;;256.40;1843.20;;;;;;5096070;28;20020;-56
2021/11/25 11:53:00;;;;;;;28.90;19.88;;;307.30;1792.00;;;;;;5355993;22;20708;-55
2021/11/25 11:55:35;;;;;;;;;;;307.40;1792.00;;;;;;5072179;28;20070;-55
2021/11/25 11:58:20;;;;;;;32.47;18.67;;;307.40;1792.00;;;;;;5074723;28;19905;-55
2021/11/25 12:00:45;;;;;;;31.30;18.98;;;307.40;1792.00;;;;;;5074375;28;20032;-55
2021/11/25 12:03:29;;;;;;;29.25;19.73;;;307.40;1792.00;;;;;;5074482;28;20028;-55
2021/11/25 12:05:55;;;;;;;30.48;19.23;;;307.50;1792.00;;;;;;5075198;28;20028;-55
2021/11/25 12:08:20;;;;;;;33.85;19.33;;;307.60;1766.40;;;;;;5073291;28;20039;-55
2021/11/25 12:10:55;;;;;;;33.72;21.23;;;307.60;1792.00;;;;;;5074311;28;20019;-56
2021/11/25 12:13:25;;;;;;;29.73;19.35;;;307.60;1766.40;;;;;;5074119;28;20020;-56
2021/11/25 12:16:11;;;;;;;28.70;18.67;;;307.70;1766.40;;;;;;5074322;28;20020;-56
2021/11/25 12:18:37;;;;;;;28.73;18.55;;;307.70;1766.40;;;;;;5073913;28;20524;-56
2021/11/25 12:21:03;;;;;;;31.98;19.95;;;307.70;1766.40;;;;;;5073998;28;20115;-56
2021/11/25 12:23:37;;;;;;;39.10;20.63;;;307.70;1766.40;;;;;;5073960;28;20037;-55
2021/11/25 12:26:04;;;;;;;35.45;21.50;;;307.80;1766.40;;;;;;5073939;28;20024;-54
2021/11/25 12:28:35;;;;;;;34.13;22.15;;;307.80;1766.40;;;;;;5073909;28;20111;-55
2021/11/25 12:31:20;;;;;;;36.30;19.88;;;307.80;1766.40;;;;;;5074230;28;20025;-55
2021/11/25 12:33:48;;;;;;;33.50;19.85;;;307.80;1766.40;;;;;;5073935;28;20086;-55
2021/11/25 12:36:41;;;;;;;30.85;20.85;;;307.80;1766.40;;;;;;5073648;28;20035;-55
2021/11/25 12:39:36;;;;;;;34.10;21.77;;;307.90;1766.40;;;;;;5071030;28;20038;-55
2021/11/25 12:42:02;;;;;;;37.10;22.58;;;307.90;1766.40;;;;;;5073593;28;20025;-55
2021/11/25 12:44:28;;;;;;;32.67;21.67;;;307.90;1766.40;;;;;;5064557;28;20090;-56
2021/11/25 12:46:54;;;;;;;33.42;19.85;;;307.90;1766.40;;;;;;5073662;28;20028;-60
2021/11/25 12:49:20;;;;;;;33.58;19.75;;;308.00;1766.40;;;;;;5073606;28;20021;-55
2021/11/25 12:51:46;;;;;;;30.02;19.02;;;308.00;1766.40;;;;;;5073487;28;20099;-56
2021/11/25 12:54:13;;;;;;;36.30;22.48;;;308.00;1766.40;;;;;;5083264;28;20048;-55
2021/11/25 12:56:41;;;;;;;35.85;20.95;;;308.10;1766.40;;;;;;5093015;28;20072;-54
2021/11/25 12:59:16;;;;;;;42.13;22.63;;;308.10;1766.40;;;;;;5093512;28;20029;-55
2021/11/25 13:01:45;;;;;;;39.05;22.08;;;308.10;1740.80;;;;;;5094268;28;20028;-55
2021/11/25 13:04:20;;;;;;;33.97;20.52;;;308.10;1766.40;;;;;;5093883;28;20085;-55
2021/11/25 13:06:48;;;;;;;37.88;22.10;;;332.80;1766.40;;;;;;5093858;28;20032;-55
2021/11/25 13:09:23;;;;;;;35.67;21.00;;;332.80;1792.00;;;;;;5093230;28;20073;-55
2021/11/25 13:11:50;;;;;;;36.88;20.50;;;332.80;1766.40;;;;;;5075360;28;20028;-54
2021/11/25 13:14:19;;;;;;;36.42;20.95;;;332.80;1766.40;;;;;;5093440;28;20032;-55
2021/11/25 13:16:55;;;;;;;37.00;20.10;;;332.80;1766.40;;;;;;5075145;28;20035;-54
2021/11/25 13:19:23;;;;;;;44.35;22.10;;;332.80;1766.40;;;;;;5095986;28;20023;-54
2021/11/25 13:21:51;;;;;;;46.40;26.63;;;332.80;1766.40;;;;;;5097125;28;20408;-54
2021/11/25 13:24:31;;;;;;;43.65;25.30;;;332.80;1766.40;;;;;;5097453;28;20096;-54
2021/11/25 13:26:59;;;;;;;40.70;24.45;;;332.80;1766.40;;;;;;5097888;28;20036;-55
2021/11/25 13:29:32;;;;;;;44.63;27.98;;;308.10;1740.80;;;;;;5097630;28;20475;-54
2021/11/25 13:31:58;;;;;;;62.88;36.88;;;332.80;1792.00;;;;;;5097340;28;20071;-54
2021/11/25 13:34:24;;;;;;;86.28;50.22;;;308.10;1766.40;;;;;;5097284;28;20032;-54
2021/11/25 13:36:55;;;;;;;102.57;58.03;;;308.10;1766.40;;;;;;5095679;28;20138;-54
2021/11/25 13:39:42;;;;;;;117.28;71.65;;;308.10;1766.40;;;;;;5093930;28;20047;-54
2021/11/25 13:42:14;;;;;;;101.93;65.35;;;308.00;1766.40;;;;;;5095288;28;20020;-55
2021/11/25 13:44:43;;;;;;;87.60;54.08;;;308.00;1792.00;;;;;;5097162;28;20491;-55
2021/11/25 13:47:19;;;;;;;86.75;51.15;;;307.90;1792.00;;;;;;5097466;28;20032;-54
2021/11/25 13:49:52;;;;;;;80.68;48.72;;;307.90;1817.60;;;;;;5097247;28;20027;-55
2021/11/25 13:52:19;;;;;;;92.75;49.05;;;307.90;1817.60;;;;;;5096948;28;20020;-54
2021/11/25 13:54:46;;;;;;;70.50;42.70;;;307.90;1817.60;;;;;;5096457;28;20092;-54
2021/11/25 13:57:16;;;;;;;66.25;39.40;;;307.90;1817.60;;;;;;5076710;28;20222;-54
2021/11/25 13:59:43;;;;;;;56.42;36.03;;;307.90;1817.60;;;;;;5095574;28;20031;-54
2021/11/25 14:02:09;;;;;;;58.13;34.65;;;307.90;1817.60;;;;;;5076635;28;20028;-54
2021/11/25 14:04:35;;;;;;;62.35;35.70;;;307.80;1817.60;;;;;;5095493;28;20028;-55
2021/11/25 14:07:14;;;;;;;67.15;37.30;;;307.80;1817.60;;;;;;5094829;28;20023;-54
2021/11/25 14:09:41;;;;;;;72.45;39.88;;;307.90;1817.60;;;;;;5094243;28;20024;-54
2021/11/25 14:12:11;;;;;;;72.65;40.60;;;307.80;1817.60;;;;;;5095640;28;20020;-54
2021/11/25 14:14:40;;;;;;;59.60;34.72;;;307.80;1817.60;;;;;;5095300;28;20120;-54
2021/11/25 14:17:16;;;;;;;63.08;36.03;;;307.80;1817.60;;;;;;5095069;28;20023;-54
2021/11/25 14:19:44;;;;;;;64.65;36.08;;;307.80;1817.60;;;;;;5095464;28;20039;-54
2021/11/25 14:22:22;;;;;;;65.53;37.80;;;307.90;1817.60;;;;;;5088151;28;20121;-54
2021/11/25 14:24:57;;;;;;;66.03;38.15;;;307.80;1843.20;;;;;;5096433;28;20024;-54
2021/11/25 14:30:08;;;;;;;77.10;41.92;;;307.80;1817.60;;;;;;5095624;28;20028;-55
2021/11/25 14:32:44;;;;;;;89.28;43.88;;;307.80;1843.20;;;;;;5096607;28;20020;-55
2021/11/25 14:35:28;;;;;;;89.07;45.22;;;307.70;1843.20;;;;;;5096486;28;20037;-54
2021/11/25 14:38:04;;;;;;;92.18;46.40;;;307.70;1843.20;;;;;;5096156;28;20034;-54
2021/11/25 14:40:33;;;;;;;95.72;51.03;;;307.60;1868.80;;;;;;5096790;28;20020;-54
2021/11/25 14:43:24;;;;;;;117.97;52.17;;;307.60;1868.80;;;;;;5095978;28;20043;-54
2021/11/25 14:45:52;;;;;;;116.63;55.78;;;307.60;1868.80;;;;;;5014131;28;20046;-54
2021/11/25 14:48:33;;;;;;;119.90;60.47;;;307.50;1868.80;;;;;;5013922;28;20041;-54
2021/11/25 14:51:09;;;;;;;142.65;68.40;;;307.50;1868.80;;;;;;5013927;28;20045;-55